This is the latest recevied weather packets stored in our database for station/object RJTY. If no packets are shown the sender has not sent any weather packets the latest 10 day(s).
| Time | Temp. | Humidity | Pressure | Rain* | Wind** | Luminosity | Snow |
|---|---|---|---|---|---|---|---|
| 1777934147 | 15.56° C | 29% | 1020.7 hPa | - | - | - | - |
| 1777932230 | 15.56° C | 29% | 1020.7 hPa | - | - | - | - |
| 1777929830 | 13.89° C | 30% | 1019.6 hPa | - | - | - | - |
| 1777929230 | 13.89° C | 30% | 1019.6 hPa | - | - | - | - |
| 1777928633 | 13.89° C | 30% | 1019.6 hPa | - | - | - | - |
| 1777928030 | 11.67° C | 40% | 1018.3 hPa | - | - | - | - |
| 1777926831 | 11.67° C | 40% | 1018.3 hPa | - | - | - | - |
| 1777926223 | 11.67° C | 40% | 1018.3 hPa | - | - | - | - |
| 1777925627 | 11.67° C | 40% | 1018.3 hPa | - | - | - | - |
| 1777923228 | 13.89° C | 33% | 1016.9 hPa | - | - | - | - |
| 1777922631 | 13.89° C | 33% | 1016.9 hPa | - | - | - | - |
| 1777922029 | 13.89° C | 33% | 1016.9 hPa | - | - | - | - |
| 1777921429 | 13.89° C | 33% | 1016.9 hPa | - | - | - | - |
| 1777919630 | 13.89° C | - | 1015.6 hPa | - | - | - | - |
| 1777919029 | 13.89° C | - | 1015.6 hPa | - | - | - | - |
| 1777918432 | 13.89° C | - | 1015.6 hPa | - | - | - | - |
| 1777917829 | 13.89° C | - | 1015.6 hPa | - | - | - | - |
| 1777917228 | 12.78° C | 47% | 1013.9 hPa | - | - | - | - |
| 1777916028 | 12.78° C | 47% | 1013.9 hPa | - | - | - | - |
| 1777915426 | 12.78° C | 47% | 1013.9 hPa | - | - | - | - |
| 1777914225 | 12.78° C | 47% | 1013.9 hPa | - | - | - | - |
| 1777913627 | 12.78° C | 47% | 1012.5 hPa | - | - | - | - |
| 1777912430 | 12.78° C | 47% | 1012.5 hPa | - | - | - | - |
| 1777911830 | 12.78° C | 47% | 1012.5 hPa | - | - | - | - |
| 1777911227 | 13.89° C | 50% | 1010.8 hPa | - | - | - | - |
* Rain since midnight (hover to see other rain measurements)
** Current wind speed in m/s (hover to see current wind gust speed)